sensor_id;sensor_type;location;lat;lon;timestamp;P1;durP1;ratioP1;P2;durP2;ratioP2
76023;SDS011;64719;52.124;6.226;2023-02-24T00:00:24;24.35;;;6.80;;
76023;SDS011;64719;52.124;6.226;2023-02-24T00:02:58;21.73;;;5.15;;
76023;SDS011;64719;52.124;6.226;2023-02-24T00:05:32;21.70;;;4.75;;
76023;SDS011;64719;52.124;6.226;2023-02-24T00:08:00;19.20;;;5.03;;
76023;SDS011;64719;52.124;6.226;2023-02-24T00:10:27;23.63;;;5.70;;
76023;SDS011;64719;52.124;6.226;2023-02-24T00:12:54;26.90;;;6.30;;
76023;SDS011;64719;52.124;6.226;2023-02-24T00:15:20;22.83;;;6.70;;
76023;SDS011;64719;52.124;6.226;2023-02-24T00:17:47;24.48;;;7.43;;
76023;SDS011;64719;52.124;6.226;2023-02-24T00:20:13;25.58;;;7.63;;
76023;SDS011;64719;52.124;6.226;2023-02-24T00:22:44;22.52;;;6.70;;
76023;SDS011;64719;52.124;6.226;2023-02-24T00:25:11;26.48;;;6.72;;
76023;SDS011;64719;52.124;6.226;2023-02-24T00:27:38;26.73;;;6.97;;
76023;SDS011;64719;52.124;6.226;2023-02-24T00:30:05;32.42;;;7.93;;
76023;SDS011;64719;52.124;6.226;2023-02-24T00:32:35;29.42;;;8.02;;
76023;SDS011;64719;52.124;6.226;2023-02-24T00:35:02;25.45;;;7.35;;
76023;SDS011;64719;52.124;6.226;2023-02-24T00:37:29;21.15;;;6.97;;
76023;SDS011;64719;52.124;6.226;2023-02-24T00:39:57;20.20;;;6.45;;
76023;SDS011;64719;52.124;6.226;2023-02-24T00:42:24;22.67;;;7.32;;
76023;SDS011;64719;52.124;6.226;2023-02-24T00:44:50;19.63;;;5.75;;
76023;SDS011;64719;52.124;6.226;2023-02-24T00:47:19;27.88;;;7.70;;
76023;SDS011;64719;52.124;6.226;2023-02-24T00:49:46;22.73;;;6.38;;
76023;SDS011;64719;52.124;6.226;2023-02-24T00:52:14;24.85;;;6.82;;
76023;SDS011;64719;52.124;6.226;2023-02-24T00:54:43;21.42;;;6.68;;
76023;SDS011;64719;52.124;6.226;2023-02-24T00:57:11;24.23;;;7.38;;
76023;SDS011;64719;52.124;6.226;2023-02-24T00:59:39;20.25;;;6.45;;
76023;SDS011;64719;52.124;6.226;2023-02-24T01:02:06;18.83;;;7.88;;
76023;SDS011;64719;52.124;6.226;2023-02-24T01:04:35;31.65;;;6.43;;
76023;SDS011;64719;52.124;6.226;2023-02-24T01:07:02;24.40;;;6.20;;
76023;SDS011;64719;52.124;6.226;2023-02-24T01:09:34;18.77;;;6.45;;
76023;SDS011;64719;52.124;6.226;2023-02-24T01:12:03;18.67;;;5.93;;
76023;SDS011;64719;52.124;6.226;2023-02-24T01:14:51;13.25;;;5.40;;
76023;SDS011;64719;52.124;6.226;2023-02-24T01:17:19;22.48;;;6.18;;
76023;SDS011;64719;52.124;6.226;2023-02-24T01:19:46;16.73;;;5.35;;
76023;SDS011;64719;52.124;6.226;2023-02-24T01:22:18;23.42;;;6.75;;
76023;SDS011;64719;52.124;6.226;2023-02-24T01:24:45;16.38;;;5.32;;
76023;SDS011;64719;52.124;6.226;2023-02-24T01:27:13;23.67;;;6.13;;
76023;SDS011;64719;52.124;6.226;2023-02-24T01:29:42;20.92;;;6.40;;
76023;SDS011;64719;52.124;6.226;2023-02-24T01:32:12;17.83;;;5.60;;
76023;SDS011;64719;52.124;6.226;2023-02-24T01:34:42;18.45;;;5.70;;
76023;SDS011;64719;52.124;6.226;2023-02-24T01:37:08;15.10;;;5.22;;
76023;SDS011;64719;52.124;6.226;2023-02-24T01:39:35;16.80;;;5.30;;
76023;SDS011;64719;52.124;6.226;2023-02-24T01:42:02;18.88;;;5.97;;
76023;SDS011;64719;52.124;6.226;2023-02-24T01:47:32;20.60;;;4.88;;
76023;SDS011;64719;52.124;6.226;2023-02-24T01:49:58;21.90;;;4.85;;
76023;SDS011;64719;52.124;6.226;2023-02-24T01:52:28;15.18;;;4.18;;
76023;SDS011;64719;52.124;6.226;2023-02-24T01:55:00;25.35;;;4.30;;
76023;SDS011;64719;52.124;6.226;2023-02-24T01:57:33;15.85;;;4.35;;
76023;SDS011;64719;52.124;6.226;2023-02-24T02:00:04;17.80;;;4.15;;
76023;SDS011;64719;52.124;6.226;2023-02-24T02:02:56;19.95;;;4.20;;
76023;SDS011;64719;52.124;6.226;2023-02-24T02:05:26;14.27;;;3.47;;
76023;SDS011;64719;52.124;6.226;2023-02-24T02:07:53;11.38;;;4.13;;
76023;SDS011;64719;52.124;6.226;2023-02-24T02:10:21;10.85;;;3.20;;
76023;SDS011;64719;52.124;6.226;2023-02-24T02:12:49;13.38;;;3.38;;
76023;SDS011;64719;52.124;6.226;2023-02-24T02:15:16;10.15;;;3.15;;
76023;SDS011;64719;52.124;6.226;2023-02-24T02:17:47;11.77;;;3.25;;
76023;SDS011;64719;52.124;6.226;2023-02-24T02:26:31;27.52;;;4.35;;
76023;SDS011;64719;52.124;6.226;2023-02-24T02:32:15;9.70;;;2.58;;
76023;SDS011;64719;52.124;6.226;2023-02-24T02:34:56;20.83;;;3.90;;
76023;SDS011;64719;52.124;6.226;2023-02-24T02:37:32;20.05;;;3.80;;
76023;SDS011;64719;52.124;6.226;2023-02-24T02:40:08;23.10;;;4.38;;
76023;SDS011;64719;52.124;6.226;2023-02-24T02:42:44;12.27;;;2.95;;
76023;SDS011;64719;52.124;6.226;2023-02-24T02:45:18;14.50;;;3.60;;
76023;SDS011;64719;52.124;6.226;2023-02-24T02:47:49;12.15;;;3.50;;
76023;SDS011;64719;52.124;6.226;2023-02-24T02:50:20;12.52;;;3.90;;
76023;SDS011;64719;52.124;6.226;2023-02-24T02:52:52;9.55;;;3.35;;
76023;SDS011;64719;52.124;6.226;2023-02-24T02:55:25;22.90;;;4.05;;
76023;SDS011;64719;52.124;6.226;2023-02-24T02:57:59;14.07;;;3.05;;
76023;SDS011;64719;52.124;6.226;2023-02-24T03:00:30;17.30;;;3.90;;
76023;SDS011;64719;52.124;6.226;2023-02-24T03:03:01;15.68;;;3.92;;
76023;SDS011;64719;52.124;6.226;2023-02-24T03:05:35;13.57;;;3.30;;
76023;SDS011;64719;52.124;6.226;2023-02-24T03:08:10;18.02;;;4.78;;
76023;SDS011;64719;52.124;6.226;2023-02-24T03:10:40;13.27;;;3.55;;
76023;SDS011;64719;52.124;6.226;2023-02-24T03:13:15;15.75;;;4.15;;
76023;SDS011;64719;52.124;6.226;2023-02-24T03:15:44;20.77;;;4.78;;
76023;SDS011;64719;52.124;6.226;2023-02-24T03:18:14;17.35;;;4.80;;
76023;SDS011;64719;52.124;6.226;2023-02-24T03:20:47;17.98;;;4.45;;
76023;SDS011;64719;52.124;6.226;2023-02-24T03:23:18;15.27;;;3.75;;
76023;SDS011;64719;52.124;6.226;2023-02-24T03:25:50;16.70;;;4.03;;
76023;SDS011;64719;52.124;6.226;2023-02-24T03:28:25;15.32;;;3.90;;
76023;SDS011;64719;52.124;6.226;2023-02-24T03:30:58;15.00;;;3.83;;
76023;SDS011;64719;52.124;6.226;2023-02-24T03:33:31;9.15;;;3.35;;
76023;SDS011;64719;52.124;6.226;2023-02-24T03:36:02;15.32;;;3.50;;
76023;SDS011;64719;52.124;6.226;2023-02-24T03:38:30;14.90;;;3.55;;
76023;SDS011;64719;52.124;6.226;2023-02-24T03:41:02;15.00;;;4.15;;
76023;SDS011;64719;52.124;6.226;2023-02-24T03:43:35;16.40;;;3.85;;
76023;SDS011;64719;52.124;6.226;2023-02-24T03:46:06;20.33;;;4.05;;
76023;SDS011;64719;52.124;6.226;2023-02-24T03:48:33;15.30;;;4.35;;
76023;SDS011;64719;52.124;6.226;2023-02-24T03:51:10;6.82;;;3.53;;
76023;SDS011;64719;52.124;6.226;2023-02-24T03:53:43;12.05;;;4.03;;
76023;SDS011;64719;52.124;6.226;2023-02-24T03:56:23;17.15;;;4.70;;
76023;SDS011;64719;52.124;6.226;2023-02-24T03:58:57;12.55;;;4.50;;
76023;SDS011;64719;52.124;6.226;2023-02-24T04:01:38;20.27;;;4.47;;
76023;SDS011;64719;52.124;6.226;2023-02-24T04:04:13;11.98;;;4.30;;
76023;SDS011;64719;52.124;6.226;2023-02-24T04:06:53;15.60;;;3.45;;
76023;SDS011;64719;52.124;6.226;2023-02-24T04:09:25;14.35;;;3.42;;
76023;SDS011;64719;52.124;6.226;2023-02-24T04:12:01;13.13;;;3.65;;
76023;SDS011;64719;52.124;6.226;2023-02-24T04:14:35;14.15;;;3.45;;
76023;SDS011;64719;52.124;6.226;2023-02-24T04:17:09;8.98;;;3.00;;
76023;SDS011;64719;52.124;6.226;2023-02-24T04:19:43;9.30;;;3.38;;
76023;SDS011;64719;52.124;6.226;2023-02-24T04:22:15;13.63;;;3.25;;
76023;SDS011;64719;52.124;6.226;2023-02-24T04:24:47;13.05;;;3.40;;
76023;SDS011;64719;52.124;6.226;2023-02-24T04:27:17;11.95;;;3.45;;
76023;SDS011;64719;52.124;6.226;2023-02-24T04:29:45;12.85;;;4.68;;
76023;SDS011;64719;52.124;6.226;2023-02-24T04:32:15;9.05;;;3.15;;
76023;SDS011;64719;52.124;6.226;2023-02-24T04:34:45;11.45;;;3.42;;
76023;SDS011;64719;52.124;6.226;2023-02-24T04:37:12;9.60;;;3.97;;
76023;SDS011;64719;52.124;6.226;2023-02-24T04:39:40;10.55;;;2.63;;
76023;SDS011;64719;52.124;6.226;2023-02-24T04:42:06;11.70;;;3.45;;
76023;SDS011;64719;52.124;6.226;2023-02-24T04:44:33;11.23;;;3.50;;
76023;SDS011;64719;52.124;6.226;2023-02-24T04:47:00;12.80;;;3.80;;
76023;SDS011;64719;52.124;6.226;2023-02-24T04:49:27;14.23;;;4.22;;
76023;SDS011;64719;52.124;6.226;2023-02-24T04:51:54;10.45;;;2.95;;
76023;SDS011;64719;52.124;6.226;2023-02-24T04:54:22;6.50;;;2.90;;
76023;SDS011;64719;52.124;6.226;2023-02-24T04:56:50;6.57;;;2.80;;
76023;SDS011;64719;52.124;6.226;2023-02-24T04:59:18;9.30;;;2.63;;
76023;SDS011;64719;52.124;6.226;2023-02-24T05:01:45;8.63;;;3.13;;
76023;SDS011;64719;52.124;6.226;2023-02-24T05:04:15;8.63;;;3.33;;
76023;SDS011;64719;52.124;6.226;2023-02-24T05:06:42;8.52;;;2.92;;
76023;SDS011;64719;52.124;6.226;2023-02-24T05:09:10;9.80;;;3.33;;
76023;SDS011;64719;52.124;6.226;2023-02-24T05:11:40;10.55;;;3.05;;
76023;SDS011;64719;52.124;6.226;2023-02-24T05:14:09;7.93;;;2.30;;
76023;SDS011;64719;52.124;6.226;2023-02-24T05:16:39;7.00;;;2.47;;
76023;SDS011;64719;52.124;6.226;2023-02-24T05:21:51;10.05;;;2.92;;
76023;SDS011;64719;52.124;6.226;2023-02-24T05:24:17;6.72;;;2.85;;
76023;SDS011;64719;52.124;6.226;2023-02-24T05:26:44;9.80;;;2.40;;
76023;SDS011;64719;52.124;6.226;2023-02-24T05:29:13;16.15;;;3.50;;
76023;SDS011;64719;52.124;6.226;2023-02-24T05:31:39;11.63;;;2.42;;
76023;SDS011;64719;52.124;6.226;2023-02-24T05:34:06;9.48;;;2.53;;
76023;SDS011;64719;52.124;6.226;2023-02-24T05:36:33;8.30;;;2.60;;
76023;SDS011;64719;52.124;6.226;2023-02-24T05:39:04;5.88;;;2.45;;
76023;SDS011;64719;52.124;6.226;2023-02-24T05:41:37;13.25;;;3.15;;
76023;SDS011;64719;52.124;6.226;2023-02-24T05:44:06;10.38;;;3.03;;
76023;SDS011;64719;52.124;6.226;2023-02-24T05:46:37;10.68;;;3.28;;
76023;SDS011;64719;52.124;6.226;2023-02-24T05:49:06;12.85;;;3.50;;
76023;SDS011;64719;52.124;6.226;2023-02-24T05:51:38;8.55;;;3.55;;
76023;SDS011;64719;52.124;6.226;2023-02-24T05:54:08;8.02;;;3.28;;
76023;SDS011;64719;52.124;6.226;2023-02-24T05:56:36;11.85;;;3.53;;
76023;SDS011;64719;52.124;6.226;2023-02-24T05:59:04;14.02;;;4.03;;
76023;SDS011;64719;52.124;6.226;2023-02-24T06:01:35;11.95;;;4.03;;
76023;SDS011;64719;52.124;6.226;2023-02-24T06:04:05;10.40;;;5.13;;
76023;SDS011;64719;52.124;6.226;2023-02-24T06:06:33;16.95;;;5.43;;
76023;SDS011;64719;52.124;6.226;2023-02-24T06:09:01;14.20;;;4.88;;
76023;SDS011;64719;52.124;6.226;2023-02-24T06:11:34;14.95;;;5.15;;
76023;SDS011;64719;52.124;6.226;2023-02-24T06:14:02;18.27;;;6.43;;
76023;SDS011;64719;52.124;6.226;2023-02-24T06:16:31;12.18;;;5.95;;
76023;SDS011;64719;52.124;6.226;2023-02-24T06:18:59;17.58;;;6.38;;
76023;SDS011;64719;52.124;6.226;2023-02-24T06:21:26;19.52;;;6.05;;
76023;SDS011;64719;52.124;6.226;2023-02-24T06:23:54;14.20;;;5.47;;
76023;SDS011;64719;52.124;6.226;2023-02-24T06:26:21;13.77;;;5.45;;
76023;SDS011;64719;52.124;6.226;2023-02-24T06:28:51;15.57;;;5.72;;
76023;SDS011;64719;52.124;6.226;2023-02-24T06:31:19;16.23;;;6.47;;
76023;SDS011;64719;52.124;6.226;2023-02-24T06:33:46;17.17;;;6.38;;
76023;SDS011;64719;52.124;6.226;2023-02-24T06:36:14;17.70;;;5.93;;
76023;SDS011;64719;52.124;6.226;2023-02-24T06:38:41;16.13;;;6.07;;
76023;SDS011;64719;52.124;6.226;2023-02-24T06:41:08;11.07;;;5.57;;
76023;SDS011;64719;52.124;6.226;2023-02-24T06:43:36;12.77;;;5.05;;
76023;SDS011;64719;52.124;6.226;2023-02-24T06:46:03;12.27;;;5.05;;
76023;SDS011;64719;52.124;6.226;2023-02-24T06:48:31;9.48;;;4.57;;
76023;SDS011;64719;52.124;6.226;2023-02-24T06:51:01;15.70;;;4.53;;
76023;SDS011;64719;52.124;6.226;2023-02-24T06:53:30;8.68;;;5.07;;
76023;SDS011;64719;52.124;6.226;2023-02-24T06:55:58;11.13;;;4.40;;
76023;SDS011;64719;52.124;6.226;2023-02-24T06:58:31;11.23;;;4.95;;
76023;SDS011;64719;52.124;6.226;2023-02-24T07:00:58;14.68;;;4.70;;
76023;SDS011;64719;52.124;6.226;2023-02-24T07:03:26;21.95;;;5.13;;
76023;SDS011;64719;52.124;6.226;2023-02-24T07:06:03;12.90;;;4.40;;
76023;SDS011;64719;52.124;6.226;2023-02-24T07:08:45;14.07;;;4.88;;
76023;SDS011;64719;52.124;6.226;2023-02-24T07:11:12;13.55;;;4.45;;
76023;SDS011;64719;52.124;6.226;2023-02-24T07:13:41;10.18;;;3.90;;
76023;SDS011;64719;52.124;6.226;2023-02-24T07:16:08;13.18;;;4.95;;
76023;SDS011;64719;52.124;6.226;2023-02-24T07:18:36;8.60;;;4.18;;
76023;SDS011;64719;52.124;6.226;2023-02-24T07:21:05;13.02;;;5.20;;
76023;SDS011;64719;52.124;6.226;2023-02-24T07:23:35;8.20;;;3.50;;
76023;SDS011;64719;52.124;6.226;2023-02-24T07:26:06;9.70;;;3.75;;
76023;SDS011;64719;52.124;6.226;2023-02-24T07:28:35;14.27;;;4.30;;
76023;SDS011;64719;52.124;6.226;2023-02-24T07:31:04;11.82;;;4.75;;
76023;SDS011;64719;52.124;6.226;2023-02-24T07:33:32;10.60;;;3.78;;
76023;SDS011;64719;52.124;6.226;2023-02-24T07:36:00;10.82;;;4.53;;
76023;SDS011;64719;52.124;6.226;2023-02-24T07:38:32;10.95;;;3.72;;
76023;SDS011;64719;52.124;6.226;2023-02-24T07:41:00;7.85;;;2.75;;
76023;SDS011;64719;52.124;6.226;2023-02-24T07:43:28;9.77;;;3.15;;
76023;SDS011;64719;52.124;6.226;2023-02-24T07:45:54;13.10;;;3.13;;
76023;SDS011;64719;52.124;6.226;2023-02-24T07:48:22;10.85;;;3.05;;
76023;SDS011;64719;52.124;6.226;2023-02-24T07:50:49;7.35;;;2.80;;
76023;SDS011;64719;52.124;6.226;2023-02-24T07:53:17;7.10;;;2.80;;
76023;SDS011;64719;52.124;6.226;2023-02-24T07:55:43;8.95;;;3.03;;
76023;SDS011;64719;52.124;6.226;2023-02-24T07:58:10;5.45;;;2.70;;
76023;SDS011;64719;52.124;6.226;2023-02-24T08:00:38;7.07;;;2.92;;
76023;SDS011;64719;52.124;6.226;2023-02-24T08:03:23;13.63;;;2.85;;
76023;SDS011;64719;52.124;6.226;2023-02-24T08:05:53;10.30;;;2.72;;
76023;SDS011;64719;52.124;6.226;2023-02-24T08:08:23;10.00;;;3.20;;
76023;SDS011;64719;52.124;6.226;2023-02-24T08:10:49;9.05;;;3.15;;
76023;SDS011;64719;52.124;6.226;2023-02-24T08:13:25;12.25;;;3.05;;
76023;SDS011;64719;52.124;6.226;2023-02-24T08:15:55;10.10;;;2.47;;
76023;SDS011;64719;52.124;6.226;2023-02-24T08:18:21;9.48;;;3.85;;
76023;SDS011;64719;52.124;6.226;2023-02-24T08:20:48;11.50;;;2.35;;
76023;SDS011;64719;52.124;6.226;2023-02-24T08:23:16;7.47;;;2.40;;
76023;SDS011;64719;52.124;6.226;2023-02-24T08:25:43;12.52;;;2.97;;
76023;SDS011;64719;52.124;6.226;2023-02-24T08:28:10;8.23;;;2.90;;
76023;SDS011;64719;52.124;6.226;2023-02-24T08:30:38;15.43;;;3.15;;
76023;SDS011;64719;52.124;6.226;2023-02-24T08:33:10;7.57;;;3.20;;
76023;SDS011;64719;52.124;6.226;2023-02-24T08:35:40;12.98;;;2.88;;
76023;SDS011;64719;52.124;6.226;2023-02-24T08:38:09;10.88;;;2.65;;
76023;SDS011;64719;52.124;6.226;2023-02-24T08:40:39;7.97;;;3.03;;
76023;SDS011;64719;52.124;6.226;2023-02-24T08:43:15;8.25;;;2.60;;
76023;SDS011;64719;52.124;6.226;2023-02-24T08:45:45;7.28;;;3.10;;
76023;SDS011;64719;52.124;6.226;2023-02-24T08:48:16;13.73;;;2.55;;
76023;SDS011;64719;52.124;6.226;2023-02-24T08:50:50;6.60;;;2.67;;
76023;SDS011;64719;52.124;6.226;2023-02-24T08:53:18;9.90;;;2.95;;
76023;SDS011;64719;52.124;6.226;2023-02-24T08:55:45;8.55;;;2.90;;
76023;SDS011;64719;52.124;6.226;2023-02-24T08:58:15;9.05;;;2.72;;
76023;SDS011;64719;52.124;6.226;2023-02-24T09:00:42;7.28;;;2.28;;
76023;SDS011;64719;52.124;6.226;2023-02-24T09:03:15;8.00;;;2.70;;
76023;SDS011;64719;52.124;6.226;2023-02-24T09:05:56;7.75;;;2.80;;
76023;SDS011;64719;52.124;6.226;2023-02-24T09:08:24;13.57;;;2.92;;
76023;SDS011;64719;52.124;6.226;2023-02-24T09:10:56;10.15;;;2.40;;
76023;SDS011;64719;52.124;6.226;2023-02-24T09:13:24;10.95;;;2.72;;
76023;SDS011;64719;52.124;6.226;2023-02-24T09:15:56;9.25;;;2.60;;
76023;SDS011;64719;52.124;6.226;2023-02-24T09:18:25;9.55;;;2.63;;
76023;SDS011;64719;52.124;6.226;2023-02-24T09:20:54;7.38;;;2.78;;
76023;SDS011;64719;52.124;6.226;2023-02-24T09:23:39;9.75;;;3.13;;
76023;SDS011;64719;52.124;6.226;2023-02-24T09:26:10;7.07;;;2.45;;
76023;SDS011;64719;52.124;6.226;2023-02-24T09:28:38;9.10;;;2.33;;
76023;SDS011;64719;52.124;6.226;2023-02-24T09:31:13;6.57;;;2.75;;
76023;SDS011;64719;52.124;6.226;2023-02-24T09:33:42;13.15;;;2.90;;
76023;SDS011;64719;52.124;6.226;2023-02-24T09:36:15;12.45;;;3.88;;
76023;SDS011;64719;52.124;6.226;2023-02-24T09:38:52;11.75;;;2.67;;
76023;SDS011;64719;52.124;6.226;2023-02-24T09:41:35;9.18;;;2.65;;
76023;SDS011;64719;52.124;6.226;2023-02-24T09:44:23;7.55;;;2.50;;
76023;SDS011;64719;52.124;6.226;2023-02-24T09:46:55;8.63;;;2.70;;
76023;SDS011;64719;52.124;6.226;2023-02-24T09:49:34;6.55;;;2.45;;
76023;SDS011;64719;52.124;6.226;2023-02-24T09:52:11;10.32;;;3.10;;
76023;SDS011;64719;52.124;6.226;2023-02-24T09:54:41;8.18;;;2.97;;
76023;SDS011;64719;52.124;6.226;2023-02-24T09:57:29;10.40;;;3.05;;
76023;SDS011;64719;52.124;6.226;2023-02-24T10:00:03;9.07;;;2.25;;
76023;SDS011;64719;52.124;6.226;2023-02-24T10:02:51;8.88;;;2.67;;
76023;SDS011;64719;52.124;6.226;2023-02-24T10:05:30;6.57;;;2.47;;
76023;SDS011;64719;52.124;6.226;2023-02-24T10:10:32;14.57;;;3.22;;
76023;SDS011;64719;52.124;6.226;2023-02-24T10:13:05;10.98;;;2.80;;
76023;SDS011;64719;52.124;6.226;2023-02-24T10:15:41;4.88;;;2.05;;
76023;SDS011;64719;52.124;6.226;2023-02-24T10:18:25;10.50;;;3.00;;
76023;SDS011;64719;52.124;6.226;2023-02-24T10:20:58;18.40;;;2.88;;
76023;SDS011;64719;52.124;6.226;2023-02-24T10:23:33;9.27;;;2.47;;
76023;SDS011;64719;52.124;6.226;2023-02-24T10:26:11;8.57;;;2.85;;
76023;SDS011;64719;52.124;6.226;2023-02-24T10:28:56;10.85;;;3.55;;
76023;SDS011;64719;52.124;6.226;2023-02-24T10:31:33;11.50;;;3.10;;
76023;SDS011;64719;52.124;6.226;2023-02-24T10:34:10;10.95;;;3.33;;
76023;SDS011;64719;52.124;6.226;2023-02-24T10:36:45;8.43;;;3.13;;
76023;SDS011;64719;52.124;6.226;2023-02-24T10:39:15;8.77;;;3.05;;
76023;SDS011;64719;52.124;6.226;2023-02-24T10:41:46;7.53;;;3.55;;
76023;SDS011;64719;52.124;6.226;2023-02-24T10:44:20;16.02;;;3.85;;
76023;SDS011;64719;52.124;6.226;2023-02-24T10:49:38;10.95;;;3.90;;
76023;SDS011;64719;52.124;6.226;2023-02-24T10:52:09;10.32;;;3.80;;
76023;SDS011;64719;52.124;6.226;2023-02-24T10:54:57;9.27;;;3.42;;
76023;SDS011;64719;52.124;6.226;2023-02-24T10:57:32;13.35;;;3.90;;
76023;SDS011;64719;52.124;6.226;2023-02-24T11:00:13;8.32;;;3.50;;
76023;SDS011;64719;52.124;6.226;2023-02-24T11:03:15;15.55;;;4.03;;
76023;SDS011;64719;52.124;6.226;2023-02-24T11:05:59;13.18;;;4.25;;
76023;SDS011;64719;52.124;6.226;2023-02-24T11:08:45;10.45;;;3.85;;
76023;SDS011;64719;52.124;6.226;2023-02-24T11:11:42;9.77;;;3.70;;
76023;SDS011;64719;52.124;6.226;2023-02-24T11:14:26;9.90;;;4.03;;
76023;SDS011;64719;52.124;6.226;2023-02-24T11:17:15;11.25;;;4.28;;
76023;SDS011;64719;52.124;6.226;2023-02-24T11:19:47;5.82;;;3.05;;
76023;SDS011;64719;52.124;6.226;2023-02-24T11:22:21;12.35;;;4.00;;
76023;SDS011;64719;52.124;6.226;2023-02-24T11:24:53;8.85;;;3.85;;
76023;SDS011;64719;52.124;6.226;2023-02-24T11:27:21;10.02;;;4.18;;
76023;SDS011;64719;52.124;6.226;2023-02-24T11:29:59;9.77;;;3.95;;
76023;SDS011;64719;52.124;6.226;2023-02-24T11:32:42;7.40;;;3.65;;
76023;SDS011;64719;52.124;6.226;2023-02-24T11:35:20;8.85;;;4.10;;
76023;SDS011;64719;52.124;6.226;2023-02-24T11:37:55;10.13;;;4.22;;
76023;SDS011;64719;52.124;6.226;2023-02-24T11:40:31;13.73;;;5.05;;
76023;SDS011;64719;52.124;6.226;2023-02-24T11:43:03;9.23;;;3.80;;
76023;SDS011;64719;52.124;6.226;2023-02-24T11:45:37;11.40;;;4.40;;
76023;SDS011;64719;52.124;6.226;2023-02-24T11:48:09;8.35;;;4.20;;
76023;SDS011;64719;52.124;6.226;2023-02-24T11:50:42;8.07;;;4.07;;
76023;SDS011;64719;52.124;6.226;2023-02-24T11:53:25;8.95;;;4.20;;
76023;SDS011;64719;52.124;6.226;2023-02-24T11:55:58;8.65;;;4.28;;
76023;SDS011;64719;52.124;6.226;2023-02-24T11:58:30;12.18;;;4.57;;
76023;SDS011;64719;52.124;6.226;2023-02-24T12:01:01;10.07;;;4.40;;
76023;SDS011;64719;52.124;6.226;2023-02-24T12:03:35;9.00;;;4.90;;
76023;SDS011;64719;52.124;6.226;2023-02-24T12:06:12;15.77;;;5.35;;
76023;SDS011;64719;52.124;6.226;2023-02-24T12:08:44;11.50;;;4.80;;
76023;SDS011;64719;52.124;6.226;2023-02-24T12:11:20;9.45;;;4.53;;
76023;SDS011;64719;52.124;6.226;2023-02-24T12:13:58;5.57;;;4.03;;
76023;SDS011;64719;52.124;6.226;2023-02-24T12:16:38;10.07;;;4.35;;
76023;SDS011;64719;52.124;6.226;2023-02-24T12:19:11;8.45;;;5.00;;
76023;SDS011;64719;52.124;6.226;2023-02-24T12:21:42;7.72;;;4.78;;
76023;SDS011;64719;52.124;6.226;2023-02-24T12:24:16;8.13;;;4.57;;
76023;SDS011;64719;52.124;6.226;2023-02-24T12:29:24;8.48;;;4.32;;
76023;SDS011;64719;52.124;6.226;2023-02-24T12:32:07;9.25;;;5.00;;
76023;SDS011;64719;52.124;6.226;2023-02-24T12:34:42;8.43;;;4.70;;
76023;SDS011;64719;52.124;6.226;2023-02-24T12:37:23;8.60;;;5.07;;
76023;SDS011;64719;52.124;6.226;2023-02-24T12:40:10;9.35;;;5.15;;
76023;SDS011;64719;52.124;6.226;2023-02-24T12:42:44;8.60;;;4.75;;
76023;SDS011;64719;52.124;6.226;2023-02-24T12:45:18;10.63;;;5.07;;
76023;SDS011;64719;52.124;6.226;2023-02-24T12:47:53;9.40;;;4.10;;
76023;SDS011;64719;52.124;6.226;2023-02-24T12:50:31;5.85;;;3.72;;
76023;SDS011;64719;52.124;6.226;2023-02-24T12:53:09;10.02;;;4.47;;
76023;SDS011;64719;52.124;6.226;2023-02-24T12:55:45;6.57;;;3.55;;
76023;SDS011;64719;52.124;6.226;2023-02-24T12:58:24;5.32;;;2.95;;
76023;SDS011;64719;52.124;6.226;2023-02-24T13:00:59;7.82;;;3.40;;
76023;SDS011;64719;52.124;6.226;2023-02-24T13:03:34;8.38;;;3.58;;
76023;SDS011;64719;52.124;6.226;2023-02-24T13:06:13;7.72;;;3.17;;
76023;SDS011;64719;52.124;6.226;2023-02-24T13:08:47;9.48;;;3.42;;
76023;SDS011;64719;52.124;6.226;2023-02-24T13:11:23;6.88;;;2.90;;
76023;SDS011;64719;52.124;6.226;2023-02-24T13:14:01;8.65;;;2.95;;
76023;SDS011;64719;52.124;6.226;2023-02-24T13:16:34;6.50;;;3.17;;
76023;SDS011;64719;52.124;6.226;2023-02-24T13:21:32;6.53;;;3.10;;
76023;SDS011;64719;52.124;6.226;2023-02-24T13:23:59;13.25;;;3.20;;
76023;SDS011;64719;52.124;6.226;2023-02-24T13:26:28;10.15;;;3.08;;
76023;SDS011;64719;52.124;6.226;2023-02-24T13:28:59;8.65;;;3.03;;
76023;SDS011;64719;52.124;6.226;2023-02-24T13:31:37;12.32;;;3.10;;
76023;SDS011;64719;52.124;6.226;2023-02-24T13:34:11;10.90;;;3.10;;
76023;SDS011;64719;52.124;6.226;2023-02-24T13:39:19;7.43;;;3.13;;
76023;SDS011;64719;52.124;6.226;2023-02-24T13:41:47;10.98;;;3.50;;
76023;SDS011;64719;52.124;6.226;2023-02-24T13:44:24;11.50;;;3.30;;
76023;SDS011;64719;52.124;6.226;2023-02-24T13:46:57;13.48;;;4.15;;
76023;SDS011;64719;52.124;6.226;2023-02-24T13:49:41;9.60;;;2.92;;
76023;SDS011;64719;52.124;6.226;2023-02-24T13:52:14;6.82;;;1.90;;
76023;SDS011;64719;52.124;6.226;2023-02-24T13:55:00;8.93;;;2.15;;
76023;SDS011;64719;52.124;6.226;2023-02-24T13:57:53;11.00;;;2.40;;
76023;SDS011;64719;52.124;6.226;2023-02-24T14:00:34;9.48;;;2.20;;
76023;SDS011;64719;52.124;6.226;2023-02-24T14:03:16;8.15;;;2.40;;
76023;SDS011;64719;52.124;6.226;2023-02-24T14:05:46;8.00;;;2.28;;
76023;SDS011;64719;52.124;6.226;2023-02-24T14:08:17;11.68;;;2.58;;
76023;SDS011;64719;52.124;6.226;2023-02-24T14:10:47;13.30;;;3.45;;
76023;SDS011;64719;52.124;6.226;2023-02-24T14:13:21;10.25;;;2.90;;
76023;SDS011;64719;52.124;6.226;2023-02-24T14:15:53;12.68;;;2.63;;
76023;SDS011;64719;52.124;6.226;2023-02-24T14:18:21;12.50;;;2.85;;
76023;SDS011;64719;52.124;6.226;2023-02-24T14:20:50;13.82;;;2.85;;
76023;SDS011;64719;52.124;6.226;2023-02-24T14:23:21;9.63;;;2.20;;
76023;SDS011;64719;52.124;6.226;2023-02-24T14:25:51;7.82;;;1.85;;
76023;SDS011;64719;52.124;6.226;2023-02-24T14:28:20;7.82;;;1.55;;
76023;SDS011;64719;52.124;6.226;2023-02-24T14:30:51;12.80;;;1.70;;
76023;SDS011;64719;52.124;6.226;2023-02-24T14:33:24;4.20;;;1.15;;
76023;SDS011;64719;52.124;6.226;2023-02-24T14:35:56;6.43;;;1.65;;
76023;SDS011;64719;52.124;6.226;2023-02-24T14:38:26;10.48;;;1.75;;
76023;SDS011;64719;52.124;6.226;2023-02-24T14:40:55;8.55;;;1.42;;
76023;SDS011;64719;52.124;6.226;2023-02-24T14:43:22;8.20;;;1.48;;
76023;SDS011;64719;52.124;6.226;2023-02-24T14:45:49;9.32;;;1.50;;
76023;SDS011;64719;52.124;6.226;2023-02-24T14:48:21;7.93;;;1.40;;
76023;SDS011;64719;52.124;6.226;2023-02-24T14:50:50;6.57;;;1.38;;
76023;SDS011;64719;52.124;6.226;2023-02-24T14:53:17;6.97;;;1.40;;
76023;SDS011;64719;52.124;6.226;2023-02-24T14:55:50;9.43;;;2.85;;
76023;SDS011;64719;52.124;6.226;2023-02-24T14:58:22;11.18;;;1.73;;
76023;SDS011;64719;52.124;6.226;2023-02-24T15:00:54;9.20;;;1.60;;
76023;SDS011;64719;52.124;6.226;2023-02-24T15:03:26;8.02;;;1.60;;
76023;SDS011;64719;52.124;6.226;2023-02-24T15:05:58;14.20;;;2.00;;
76023;SDS011;64719;52.124;6.226;2023-02-24T15:08:34;9.93;;;1.75;;
76023;SDS011;64719;52.124;6.226;2023-02-24T15:11:05;8.73;;;1.70;;
76023;SDS011;64719;52.124;6.226;2023-02-24T15:13:44;11.52;;;1.52;;
76023;SDS011;64719;52.124;6.226;2023-02-24T15:16:16;9.75;;;1.63;;
76023;SDS011;64719;52.124;6.226;2023-02-24T15:18:50;8.98;;;1.80;;
76023;SDS011;64719;52.124;6.226;2023-02-24T15:21:19;9.52;;;1.60;;
76023;SDS011;64719;52.124;6.226;2023-02-24T15:23:48;10.93;;;1.58;;
76023;SDS011;64719;52.124;6.226;2023-02-24T15:26:23;5.65;;;1.25;;
76023;SDS011;64719;52.124;6.226;2023-02-24T15:28:56;11.05;;;1.77;;
76023;SDS011;64719;52.124;6.226;2023-02-24T15:31:24;7.00;;;1.33;;
76023;SDS011;64719;52.124;6.226;2023-02-24T15:33:54;7.65;;;1.52;;
76023;SDS011;64719;52.124;6.226;2023-02-24T15:36:24;12.18;;;1.77;;